Time;durP1;ratioP1;P1;durP2;ratioP2;P2;SDS_P1;SDS_P2;PMS_P1;PMS_P2;Temp;Humidity;BMP_temperature;BMP_pressure;BME280_temperature;BME280_humidity;BME280_pressure;Samples;Min_cycle;Max_cycle;Signal;HPM_P1;HPM_P2
2021/05/01 00:00:53;;;;;;;14.90;13.30;;;9.80;99.90;;;;;;5025425;28;20247;-82
2021/05/01 00:03:20;;;;;;;13.27;12.05;;;9.80;99.90;;;;;;5020273;28;20215;-85
2021/05/01 00:05:46;;;;;;;14.18;12.68;;;9.80;99.90;;;;;;5026998;28;20201;-83
2021/05/01 00:08:14;;;;;;;14.43;12.75;;;9.80;99.90;;;;;;5025813;28;20223;-82
2021/05/01 00:10:40;;;;;;;13.82;12.48;;;9.80;99.90;;;;;;5025738;28;20212;-83
2021/05/01 00:13:13;;;;;;;14.85;13.45;;;9.90;99.90;;;;;;5028757;28;20205;-82
2021/05/01 00:15:40;;;;;;;15.85;13.98;;;9.90;99.90;;;;;;5025914;28;20205;-84
2021/05/01 00:20:51;;;;;;;13.52;12.23;;;9.90;99.90;;;;;;5041933;28;20208;-84
2021/05/01 00:23:18;;;;;;;15.60;14.10;;;9.90;99.90;;;;;;5049106;28;20187;-84
2021/05/01 00:25:45;;;;;;;14.73;13.35;;;9.70;99.90;;;;;;5048245;28;20294;-83
2021/05/01 00:28:54;;;;;;;16.73;15.07;;;9.60;99.90;;;;;;5049184;28;20193;-84
2021/05/01 00:31:21;;;;;;;18.88;16.27;;;9.50;99.90;;;;;;5019604;28;20204;-83
2021/05/01 00:33:52;;;;;;;18.15;16.30;;;9.40;99.90;;;;;;5032743;28;20209;-83
2021/05/01 00:36:32;;;;;;;15.52;13.10;;;9.30;99.90;;;;;;5031896;28;20227;-83
2021/05/01 00:39:37;;;;;;;15.82;13.95;;;9.30;99.90;;;;;;5031127;28;20228;-83
2021/05/01 00:42:04;;;;;;;17.58;15.85;;;9.20;99.90;;;;;;5031277;28;20216;-83
2021/05/01 00:44:30;;;;;;;15.55;14.07;;;9.20;99.90;;;;;;5029590;28;20230;-83
2021/05/01 00:46:57;;;;;;;17.98;16.17;;;9.30;99.90;;;;;;5021261;28;20181;-84
2021/05/01 00:49:24;;;;;;;17.20;15.07;;;9.20;99.90;;;;;;5021898;28;20231;-84
2021/05/01 00:51:50;;;;;;;15.65;13.88;;;9.20;99.90;;;;;;5024147;28;20197;-84
2021/05/01 00:54:39;;;;;;;18.88;16.83;;;9.20;99.90;;;;;;5031231;28;20279;-85
2021/05/01 00:57:06;;;;;;;15.65;14.05;;;9.20;99.90;;;;;;5045835;28;20230;-84
2021/05/01 00:59:36;;;;;;;17.35;15.65;;;9.30;99.90;;;;;;5022067;28;20189;-84
2021/05/01 01:02:04;;;;;;;17.17;15.57;;;9.30;99.90;;;;;;5039237;28;20226;-84
2021/05/01 01:04:31;;;;;;;19.60;16.38;;;9.30;99.90;;;;;;5034624;28;20223;-85
2021/05/01 01:07:03;;;;;;;17.80;15.93;;;9.20;99.90;;;;;;5032873;28;20208;-84
2021/05/01 01:09:30;;;;;;;16.55;14.82;;;9.20;99.90;;;;;;5034245;28;20273;-84
2021/05/01 01:11:58;;;;;;;17.92;15.98;;;9.30;99.90;;;;;;5023049;28;20212;-84
2021/05/01 01:14:25;;;;;;;19.13;16.38;;;9.20;99.90;;;;;;5024765;28;20204;-85
2021/05/01 01:16:51;;;;;;;18.50;16.70;;;9.20;99.90;;;;;;5028098;28;20209;-83
2021/05/01 01:19:18;;;;;;;20.17;18.08;;;9.20;99.90;;;;;;5020053;28;20230;-84
2021/05/01 01:21:53;;;;;;;20.13;17.98;;;9.20;99.90;;;;;;5021362;28;20216;-84
2021/05/01 01:24:20;;;;;;;21.52;16.17;;;9.20;99.90;;;;;;5025212;28;20204;-84
2021/05/01 01:26:47;;;;;;;20.63;17.90;;;9.10;99.90;;;;;;5021464;28;20214;-84
2021/05/01 01:29:14;;;;;;;19.45;17.55;;;9.10;99.90;;;;;;5019968;28;20234;-84
2021/05/01 01:31:50;;;;;;;20.05;17.95;;;9.00;99.90;;;;;;5022276;28;20219;-84
2021/05/01 01:34:17;;;;;;;21.50;18.77;;;9.00;99.90;;;;;;5005407;28;20204;-84
2021/05/01 01:36:56;;;;;;;20.35;17.70;;;8.90;99.90;;;;;;5022127;28;20212;-84
2021/05/01 01:39:23;;;;;;;21.58;19.30;;;8.90;99.90;;;;;;5016078;28;20299;-84
2021/05/01 01:41:50;;;;;;;23.48;20.55;;;8.90;99.90;;;;;;5020282;28;20232;-83
2021/05/01 01:44:16;;;;;;;24.10;20.75;;;8.80;99.90;;;;;;5019231;28;20211;-83
2021/05/01 01:46:48;;;;;;;21.08;18.88;;;8.70;99.90;;;;;;5027700;28;20205;-84
2021/05/01 01:49:15;;;;;;;22.13;19.83;;;8.70;99.90;;;;;;5035401;28;20242;-84
2021/05/01 01:51:42;;;;;;;22.13;19.80;;;8.70;99.90;;;;;;5028429;28;20216;-83
2021/05/01 01:54:08;;;;;;;24.85;20.25;;;8.80;99.90;;;;;;5019613;28;20208;-83
2021/05/01 01:56:37;;;;;;;23.98;20.85;;;8.70;99.90;;;;;;5019379;28;20322;-83
2021/05/01 01:59:06;;;;;;;29.45;22.13;;;8.70;99.90;;;;;;5029423;28;20220;-84
2021/05/01 02:01:32;;;;;;;23.08;20.58;;;8.70;99.90;;;;;;5016731;28;20227;-83
2021/05/01 02:03:59;;;;;;;23.67;21.27;;;8.60;99.90;;;;;;5018311;28;20201;-83
2021/05/01 02:06:26;;;;;;;22.83;20.40;;;8.70;99.90;;;;;;5017328;28;20250;-84
2021/05/01 02:08:53;;;;;;;23.73;20.35;;;8.70;99.90;;;;;;5016364;28;20274;-84
2021/05/01 02:11:20;;;;;;;23.77;21.17;;;8.70;99.90;;;;;;5011971;28;20212;-84
2021/05/01 02:13:47;;;;;;;23.83;21.27;;;8.70;99.90;;;;;;5018685;28;20209;-83
2021/05/01 02:16:14;;;;;;;22.40;19.17;;;8.70;99.90;;;;;;5018977;28;20212;-83
2021/05/01 02:18:40;;;;;;;23.98;21.48;;;8.80;99.90;;;;;;5020221;28;20220;-83
2021/05/01 02:21:07;;;;;;;23.08;20.52;;;8.90;99.90;;;;;;5019781;28;20766;-83
2021/05/01 02:23:34;;;;;;;23.75;21.25;;;8.90;99.90;;;;;;5018183;28;20215;-83
2021/05/01 02:26:00;;;;;;;26.23;21.65;;;8.90;99.90;;;;;;5019655;28;20211;-83
2021/05/01 02:28:27;;;;;;;23.25;20.73;;;8.80;99.90;;;;;;5016735;28;20290;-84
2021/05/01 02:30:55;;;;;;;24.40;21.80;;;9.00;99.90;;;;;;5023041;28;20255;-84
2021/05/01 02:33:21;;;;;;;25.50;22.70;;;9.00;99.90;;;;;;5019603;28;20216;-83
2021/05/01 02:35:48;;;;;;;24.20;21.60;;;9.10;99.90;;;;;;5025967;28;20276;-84
2021/05/01 02:38:15;;;;;;;23.88;20.50;;;9.10;99.90;;;;;;5023801;28;20217;-83
2021/05/01 02:40:41;;;;;;;23.73;20.88;;;9.10;99.90;;;;;;5027226;28;20212;-84
2021/05/01 02:43:10;;;;;;;23.80;21.08;;;9.20;99.90;;;;;;5025193;28;20284;-84
2021/05/01 02:45:37;;;;;;;24.38;20.67;;;9.10;99.90;;;;;;5025075;28;20209;-84
2021/05/01 02:48:11;;;;;;;23.67;20.58;;;9.20;99.90;;;;;;5026781;28;20350;-84
2021/05/01 02:50:43;;;;;;;26.00;23.20;;;9.10;99.90;;;;;;5028219;28;20196;-84
2021/05/01 02:53:13;;;;;;;26.90;22.45;;;9.10;99.90;;;;;;5025910;28;20224;-84
2021/05/01 02:55:40;;;;;;;26.73;21.60;;;9.10;99.90;;;;;;5024988;28;20250;-84
2021/05/01 02:58:06;;;;;;;25.83;22.65;;;9.00;99.90;;;;;;5021889;28;20783;-84
2021/05/01 03:00:33;;;;;;;24.23;20.55;;;9.00;99.90;;;;;;5016172;28;20240;-83
2021/05/01 03:02:59;;;;;;;24.00;21.20;;;9.10;99.90;;;;;;5023998;28;20228;-84
2021/05/01 03:05:37;;;;;;;25.95;22.92;;;9.10;99.90;;;;;;5022013;28;20201;-84
2021/05/01 03:08:04;;;;;;;26.42;21.73;;;9.10;99.90;;;;;;5011276;28;20204;-84
2021/05/01 03:10:30;;;;;;;28.38;23.08;;;9.00;99.90;;;;;;5017919;28;20291;-84
2021/05/01 03:12:57;;;;;;;26.75;23.67;;;9.10;99.90;;;;;;5018403;28;20205;-84
2021/05/01 03:15:24;;;;;;;30.48;23.90;;;9.10;99.90;;;;;;5012185;28;20204;-83
2021/05/01 03:17:54;;;;;;;26.48;22.83;;;9.10;99.90;;;;;;5019799;28;20240;-83
2021/05/01 03:20:21;;;;;;;27.50;23.90;;;9.00;99.90;;;;;;5016254;28;20209;-84
2021/05/01 03:22:49;;;;;;;25.48;22.58;;;9.00;99.90;;;;;;5022646;28;20550;-83
2021/05/01 03:25:18;;;;;;;28.20;23.90;;;9.00;99.90;;;;;;5022560;28;20213;-83
2021/05/01 03:27:45;;;;;;;27.70;24.60;;;9.10;99.90;;;;;;5022171;28;20686;-84
2021/05/01 03:30:20;;;;;;;28.98;25.88;;;9.10;99.90;;;;;;5021966;28;20233;-84
2021/05/01 03:32:46;;;;;;;27.02;23.95;;;9.10;99.90;;;;;;5021851;28;20593;-84
2021/05/01 03:35:14;;;;;;;27.17;24.15;;;9.20;99.90;;;;;;5022538;28;20209;-84
2021/05/01 03:37:48;;;;;;;28.20;24.25;;;9.10;99.90;;;;;;5019832;28;20335;-84
2021/05/01 03:40:21;;;;;;;29.20;26.08;;;9.10;99.90;;;;;;5019596;28;20227;-83
2021/05/01 03:42:48;;;;;;;28.70;24.48;;;9.10;99.90;;;;;;5018879;28;20219;-83
2021/05/01 03:45:15;;;;;;;30.02;25.27;;;9.00;99.90;;;;;;5019983;28;20222;-84
2021/05/01 03:47:42;;;;;;;27.67;23.52;;;9.00;99.90;;;;;;5023023;28;20204;-83
2021/05/01 03:50:09;;;;;;;30.33;25.92;;;9.00;99.90;;;;;;5022347;28;20287;-84
2021/05/01 03:52:36;;;;;;;28.95;24.90;;;9.00;99.90;;;;;;5023326;28;20210;-84
2021/05/01 03:55:05;;;;;;;27.52;22.73;;;8.90;99.90;;;;;;5028775;28;20300;-83
2021/05/01 03:57:42;;;;;;;29.60;24.73;;;8.90;99.90;;;;;;5028786;28;20224;-84
2021/05/01 04:00:10;;;;;;;27.75;24.80;;;8.90;99.90;;;;;;5022426;28;20227;-83
2021/05/01 04:02:42;;;;;;;29.23;25.80;;;8.90;99.90;;;;;;5035502;28;20291;-83
2021/05/01 04:11:54;;;;;;;27.30;23.90;;;9.00;99.90;;;;;;5033724;28;20183;-84
2021/05/01 04:14:22;;;;;;;27.55;24.30;;;9.00;99.90;;;;;;5039803;28;20239;-84
2021/05/01 04:16:49;;;;;;;30.75;27.35;;;8.90;99.90;;;;;;5027345;28;20207;-84
2021/05/01 04:19:15;;;;;;;30.10;25.10;;;8.90;99.90;;;;;;5021484;28;20661;-84
2021/05/01 04:22:07;;;;;;;28.95;25.58;;;9.00;99.90;;;;;;5021483;28;20217;-84
2021/05/01 04:24:35;;;;;;;29.17;25.67;;;9.00;99.90;;;;;;5014676;28;20212;-83
2021/05/01 04:27:02;;;;;;;28.70;25.65;;;9.00;99.90;;;;;;5022371;28;20204;-83
2021/05/01 04:29:30;;;;;;;29.67;26.48;;;9.00;99.90;;;;;;5021262;28;20232;-83
2021/05/01 04:31:56;;;;;;;30.95;26.05;;;9.00;99.90;;;;;;5022774;28;20215;-83
2021/05/01 04:34:37;;;;;;;32.55;28.70;;;8.90;99.90;;;;;;5025961;28;20215;-83
2021/05/01 04:37:04;;;;;;;33.53;29.35;;;8.90;99.90;;;;;;5023445;28;20230;-83
2021/05/01 04:39:30;;;;;;;34.67;30.95;;;8.90;99.90;;;;;;5023729;28;20255;-83
2021/05/01 04:41:57;;;;;;;32.83;26.90;;;8.80;99.90;;;;;;5024255;28;20222;-83
2021/05/01 04:44:24;;;;;;;35.45;30.15;;;8.80;99.90;;;;;;5013540;28;20521;-83
2021/05/01 04:46:55;;;;;;;31.00;27.52;;;8.70;99.90;;;;;;5022895;28;20574;-83
2021/05/01 04:49:21;;;;;;;32.97;28.20;;;8.70;99.90;;;;;;5019744;28;20238;-83
2021/05/01 04:51:48;;;;;;;34.22;30.10;;;8.80;99.90;;;;;;5024022;28;20206;-84
2021/05/01 04:54:15;;;;;;;29.17;26.05;;;8.80;99.90;;;;;;5023319;28;20255;-83
2021/05/01 04:56:41;;;;;;;30.05;26.23;;;8.90;99.90;;;;;;5023041;28;20215;-83
2021/05/01 04:59:08;;;;;;;33.40;28.50;;;8.90;99.90;;;;;;5022861;28;20228;-84
2021/05/01 05:01:35;;;;;;;29.80;26.45;;;8.90;99.90;;;;;;5017038;28;20259;-83
2021/05/01 05:04:03;;;;;;;30.08;26.15;;;8.80;99.90;;;;;;5021614;28;20247;-83
2021/05/01 05:06:36;;;;;;;34.83;30.20;;;9.00;99.90;;;;;;5021733;28;20212;-83
2021/05/01 05:09:03;;;;;;;31.33;26.65;;;8.90;99.90;;;;;;5021280;28;20267;-83
2021/05/01 05:11:30;;;;;;;32.38;27.92;;;8.80;99.90;;;;;;5022986;28;20208;-83
2021/05/01 05:13:56;;;;;;;31.23;27.58;;;8.90;99.90;;;;;;5022291;28;20242;-82
2021/05/01 05:16:23;;;;;;;30.38;27.08;;;8.80;99.90;;;;;;5017222;28;20575;-85
2021/05/01 05:18:57;;;;;;;29.88;26.67;;;8.90;99.90;;;;;;5018685;28;20239;-83
2021/05/01 05:21:28;;;;;;;31.10;27.85;;;8.90;99.90;;;;;;5021999;28;20239;-84
2021/05/01 05:23:54;;;;;;;35.92;30.23;;;8.90;99.90;;;;;;5025822;28;20231;-83
2021/05/01 05:26:22;;;;;;;34.97;28.70;;;8.90;99.90;;;;;;5024511;28;20223;-84
2021/05/01 05:28:49;;;;;;;30.58;25.70;;;9.00;99.90;;;;;;5029767;28;20242;-83
2021/05/01 05:31:16;;;;;;;31.95;28.52;;;9.00;99.90;;;;;;5029805;28;20204;-84
2021/05/01 05:33:42;;;;;;;33.20;29.20;;;9.10;99.90;;;;;;5031051;28;20216;-85
2021/05/01 05:36:09;;;;;;;31.98;28.60;;;9.20;99.90;;;;;;5030346;28;20242;-83
2021/05/01 05:38:46;;;;;;;32.20;28.83;;;9.30;99.90;;;;;;5027090;28;20264;-84
2021/05/01 05:41:12;;;;;;;30.52;26.98;;;9.40;99.90;;;;;;5026234;28;20260;-84
2021/05/01 05:43:39;;;;;;;33.90;29.73;;;9.40;99.90;;;;;;5026595;28;20292;-84
2021/05/01 05:46:12;;;;;;;30.40;27.13;;;9.40;99.90;;;;;;5025393;28;20204;-84
2021/05/01 05:48:39;;;;;;;31.17;27.48;;;9.50;99.90;;;;;;5025341;28;20241;-84
2021/05/01 05:51:06;;;;;;;32.78;27.63;;;9.50;99.90;;;;;;5022514;28;20208;-83
2021/05/01 05:53:34;;;;;;;34.78;31.00;;;9.50;99.90;;;;;;5025486;28;20205;-84
2021/05/01 05:56:07;;;;;;;31.30;27.73;;;9.50;99.90;;;;;;5020722;28;20208;-84
2021/05/01 05:58:41;;;;;;;30.70;24.73;;;9.40;99.90;;;;;;5022032;28;20250;-84
2021/05/01 06:01:08;;;;;;;31.70;26.67;;;9.40;99.90;;;;;;5020988;28;20208;-85
2021/05/01 06:03:35;;;;;;;32.22;27.77;;;9.40;99.90;;;;;;5022512;28;20356;-84
2021/05/01 06:06:05;;;;;;;32.38;28.73;;;9.40;99.90;;;;;;5020131;28;20204;-83
2021/05/01 06:08:33;;;;;;;37.53;31.60;;;9.40;99.90;;;;;;5023885;28;20330;-83
2021/05/01 06:11:01;;;;;;;32.30;28.30;;;9.40;99.90;;;;;;5020003;28;20196;-83
2021/05/01 06:13:32;;;;;;;32.72;29.17;;;9.40;99.90;;;;;;5010147;28;20218;-83
2021/05/01 06:18:52;;;;;;;29.40;26.30;;;9.70;99.90;;;;;;5013764;28;20239;-83
2021/05/01 06:21:19;;;;;;;33.33;29.73;;;9.70;99.90;;;;;;5016976;28;20242;-83
2021/05/01 06:26:31;;;;;;;34.15;27.05;;;9.80;99.90;;;;;;5018364;28;20220;-83
2021/05/01 06:28:59;;;;;;;31.38;27.70;;;9.70;99.90;;;;;;5023969;28;20288;-84
2021/05/01 06:31:26;;;;;;;34.28;27.58;;;9.70;99.90;;;;;;5017188;28;20244;-83
2021/05/01 06:34:20;;;;;;;29.98;26.63;;;9.80;99.90;;;;;;5022252;28;20212;-85
2021/05/01 06:37:18;;;;;;;32.38;28.85;;;9.90;99.90;;;;;;5013933;28;20303;-84
2021/05/01 06:39:58;;;;;;;32.08;27.77;;;9.90;99.90;;;;;;5026139;28;20633;-85
2021/05/01 07:00:39;;;;;;;37.40;29.88;;;11.70;99.90;;;;;;4849466;29;20242;-85
2021/05/01 07:03:16;;;;;;;33.30;29.70;;;11.70;99.90;;;;;;4856952;29;20252;-86
2021/05/01 07:05:43;;;;;;;35.70;29.48;;;11.60;99.90;;;;;;4998506;28;20207;-85
2021/05/01 07:08:17;;;;;;;32.22;28.80;;;11.30;99.90;;;;;;5044542;28;20291;-85
2021/05/01 07:11:14;;;;;;;35.22;30.63;;;11.40;99.90;;;;;;5051388;28;20172;-87
2021/05/01 07:13:41;;;;;;;33.25;29.02;;;11.40;99.90;;;;;;5057354;28;20188;-87
2021/05/01 07:16:10;;;;;;;29.90;26.80;;;11.60;99.90;;;;;;5057206;28;20236;-86
2021/05/01 07:18:38;;;;;;;34.28;29.15;;;12.00;99.90;;;;;;5051475;28;20273;-85
2021/05/01 07:21:06;;;;;;;33.00;29.48;;;12.70;99.90;;;;;;5022236;28;20210;-86
2021/05/01 07:23:33;;;;;;;35.05;29.27;;;13.70;99.90;;;;;;5030199;28;20304;-85
2021/05/01 07:26:00;;;;;;;29.17;26.10;;;14.70;99.90;;;;;;5026004;28;20209;-85
2021/05/01 07:28:35;;;;;;;30.25;26.45;;;15.30;99.90;;;;;;5020118;28;20289;-86
2021/05/01 07:31:05;;;;;;;31.48;28.10;;;16.10;99.90;;;;;;5022049;28;20214;-87
2021/05/01 07:33:42;;;;;;;30.90;27.90;;;16.70;97.80;;;;;;5016651;28;20341;-86
2021/05/01 07:36:35;;;;;;;29.02;25.42;;;16.90;97.30;;;;;;5022029;28;20235;-86
2021/05/01 07:39:24;;;;;;;35.47;28.57;;;17.60;96.10;;;;;;5021976;28;20235;-89
2021/05/01 07:41:57;;;;;;;32.00;28.70;;;18.10;94.00;;;;;;5023964;28;20557;-86
2021/05/01 07:44:30;;;;;;;33.10;29.80;;;18.50;93.40;;;;;;5024797;28;20467;-85
2021/05/01 07:46:58;;;;;;;36.93;33.20;;;19.50;92.10;;;;;;5023900;28;20472;-86
2021/05/01 07:49:53;;;;;;;37.60;33.70;;;19.50;91.40;;;;;;5017388;28;20475;-88
2021/05/01 07:52:20;;;;;;;38.07;32.97;;;20.10;90.30;;;;;;5014313;28;20463;-86
2021/05/01 07:54:52;;;;;;;37.37;33.40;;;20.40;88.70;;;;;;5022789;28;20430;-87
2021/05/01 08:00:43;;;;;;;39.77;35.50;;;21.10;83.90;;;;;;5024151;28;20381;-86
2021/05/01 08:03:12;;;;;;;39.93;35.67;;;21.20;83.20;;;;;;5015816;28;20461;-88
2021/05/01 08:09:01;;;;;;;42.27;37.73;;;20.90;83.10;;;;;;4963068;22;20480;-71
2021/05/01 08:11:28;;;;;;;47.33;38.77;;;20.50;85.10;;;;;;5030568;28;20500;-73
2021/05/01 08:13:54;;;;;;;43.77;39.00;;;20.10;84.60;;;;;;5031710;28;20458;-72
2021/05/01 08:16:21;;;;;;;48.40;39.00;;;19.00;87.10;;;;;;5030585;28;20582;-74
2021/05/01 08:18:50;;;;;;;48.77;38.20;;;18.70;90.30;;;;;;5023854;28;20510;-71
2021/05/01 08:21:17;;;;;;;43.97;37.00;;;19.30;89.50;;;;;;5022722;28;20521;-74
2021/05/01 08:23:44;;;;;;;45.70;36.97;;;20.40;87.80;;;;;;5026483;28;20451;-74
2021/05/01 08:26:11;;;;;;;48.13;39.67;;;21.10;85.60;;;;;;5025544;28;20442;-71
2021/05/01 08:28:38;;;;;;;50.60;45.07;;;22.10;82.50;;;;;;5020056;28;20464;-73
2021/05/01 08:31:06;;;;;;;46.60;39.60;;;21.20;80.50;;;;;;5022693;28;20458;-71
2021/05/01 08:33:33;;;;;;;47.10;41.37;;;21.90;81.90;;;;;;5019768;28;20479;-73
2021/05/01 08:35:59;;;;;;;47.87;42.40;;;22.10;79.20;;;;;;5023900;28;20938;-71
2021/05/01 08:38:28;;;;;;;46.93;40.53;;;21.30;80.60;;;;;;5032207;28;20712;-73
2021/05/01 08:40:58;;;;;;;50.57;41.73;;;20.90;82.00;;;;;;5033103;28;20493;-75
2021/05/01 08:43:26;;;;;;;53.70;46.17;;;20.20;82.90;;;;;;5033718;28;20445;-74
2021/05/01 08:45:53;;;;;;;55.10;45.07;;;19.30;85.60;;;;;;5033574;28;20928;-75
2021/05/01 08:48:24;;;;;;;55.67;48.10;;;18.60;87.00;;;;;;5026534;28;21362;-77
2021/05/01 08:50:55;;;;;;;61.93;47.87;;;17.30;90.80;;;;;;5034069;28;20529;-82
2021/05/01 08:53:22;;;;;;;60.83;48.10;;;17.20;91.90;;;;;;5027814;28;20446;-79
2021/05/01 08:55:49;;;;;;;47.07;39.77;;;17.60;91.50;;;;;;5397155;22;20811;-80
2021/05/01 08:58:16;;;;;;;52.30;43.17;;;18.40;91.00;;;;;;5035939;28;20450;-78
2021/05/01 09:00:47;;;;;;;52.60;41.53;;;18.90;89.70;;;;;;5033924;28;21030;-78
2021/05/01 09:03:17;;;;;;;53.23;39.13;;;19.50;87.90;;;;;;5034278;28;20479;-76
2021/05/01 09:05:45;;;;;;;48.07;41.93;;;20.00;85.90;;;;;;5027203;28;20533;-75
2021/05/01 09:08:13;;;;;;;44.73;39.80;;;19.80;85.90;;;;;;5027053;28;20444;-71
2021/05/01 09:10:42;;;;;;;50.07;43.67;;;20.40;84.10;;;;;;5013435;28;20458;-71
2021/05/01 09:13:14;;;;;;;55.57;47.50;;;19.80;83.80;;;;;;5022935;28;21430;-72
2021/05/01 09:15:42;;;;;;;55.10;45.60;;;19.30;84.90;;;;;;5017187;28;20463;-72
2021/05/01 09:18:10;;;;;;;60.03;47.40;;;18.40;87.00;;;;;;5024272;28;20885;-72
2021/05/01 09:20:37;;;;;;;56.77;46.27;;;18.20;90.20;;;;;;5020848;28;20463;-72
2021/05/01 09:23:05;;;;;;;58.80;44.97;;;18.20;90.00;;;;;;5020554;28;20537;-73
2021/05/01 09:25:33;;;;;;;57.50;48.47;;;17.90;90.30;;;;;;5022745;28;20474;-71
2021/05/01 09:28:06;;;;;;;72.60;54.70;;;17.40;91.40;;;;;;5021115;28;20452;-73
2021/05/01 09:30:35;;;;;;;85.07;64.07;;;16.60;96.80;;;;;;5022063;28;20465;-69
2021/05/01 09:33:24;;;;;;;103.10;68.70;;;15.80;99.90;;;;;;5031531;28;20204;-71
2021/05/01 09:35:58;;;;;;;94.20;65.93;;;14.70;99.90;;;;;;5021738;28;20254;-75
2021/05/01 09:38:28;;;;;;;76.20;60.45;;;13.80;99.90;;;;;;5020466;28;20217;-71
2021/05/01 09:40:55;;;;;;;83.80;60.55;;;13.20;99.90;;;;;;5029570;28;20207;-74
2021/05/01 09:43:22;;;;;;;88.32;58.88;;;12.70;99.90;;;;;;5016504;28;20244;-72
2021/05/01 09:45:49;;;;;;;91.60;65.50;;;12.50;99.90;;;;;;5015086;28;20357;-72
2021/05/01 09:48:21;;;;;;;88.28;62.03;;;12.20;99.90;;;;;;5018488;28;20296;-75
2021/05/01 09:51:02;;;;;;;83.55;58.20;;;12.10;99.90;;;;;;5027923;28;21609;-72
2021/05/01 09:53:29;;;;;;;86.05;62.13;;;12.10;99.90;;;;;;5019210;28;20254;-72
2021/05/01 09:55:55;;;;;;;85.57;60.42;;;12.30;99.90;;;;;;5019731;28;20229;-74
2021/05/01 09:58:24;;;;;;;72.45;54.60;;;12.70;99.90;;;;;;5020157;28;20578;-74
2021/05/01 10:00:52;;;;;;;82.05;61.80;;;13.40;99.90;;;;;;5024590;28;20202;-74
2021/05/01 10:03:22;;;;;;;87.40;66.75;;;14.00;99.90;;;;;;5026972;28;20232;-73
2021/05/01 10:05:49;;;;;;;80.95;62.22;;;14.40;99.90;;;;;;5031597;28;20231;-75
2021/05/01 10:08:18;;;;;;;77.70;56.67;;;15.20;99.90;;;;;;5031648;28;20241;-72
2021/05/01 10:10:48;;;;;;;79.65;59.20;;;15.10;99.90;;;;;;5031558;28;20220;-72
2021/05/01 10:13:15;;;;;;;62.63;48.35;;;15.20;99.90;;;;;;5028963;28;20262;-72
2021/05/01 10:15:43;;;;;;;56.97;45.72;;;14.70;99.90;;;;;;5031740;28;20243;-73
2021/05/01 10:18:13;;;;;;;53.85;41.58;;;14.10;99.90;;;;;;5028967;28;20240;-72
2021/05/01 10:20:45;;;;;;;58.65;43.40;;;13.80;99.90;;;;;;5031435;28;20276;-72
2021/05/01 10:23:13;;;;;;;62.97;50.65;;;13.70;99.90;;;;;;5031130;28;20230;-72
2021/05/01 10:25:41;;;;;;;70.18;51.97;;;13.70;99.90;;;;;;5028442;28;20232;-73
2021/05/01 10:28:12;;;;;;;64.60;49.58;;;13.60;99.90;;;;;;5026659;28;20267;-73
2021/05/01 10:30:44;;;;;;;58.45;47.33;;;13.60;99.90;;;;;;5031396;28;20209;-72
2021/05/01 10:33:23;;;;;;;58.47;46.35;;;13.70;99.90;;;;;;5021302;28;20294;-73
2021/05/01 10:35:54;;;;;;;73.18;54.45;;;13.90;99.90;;;;;;5019366;28;20570;-72
2021/05/01 10:38:22;;;;;;;66.60;51.45;;;14.00;99.90;;;;;;5023127;28;20207;-71
2021/05/01 10:40:51;;;;;;;77.90;55.42;;;14.00;99.90;;;;;;5031095;28;20202;-72
2021/05/01 10:43:20;;;;;;;72.57;55.50;;;14.00;99.90;;;;;;5031040;28;20596;-71
2021/05/01 10:45:54;;;;;;;66.38;53.97;;;14.00;99.90;;;;;;5031320;28;20305;-72
2021/05/01 10:48:21;;;;;;;69.40;54.58;;;14.00;99.90;;;;;;5028939;28;20278;-71
2021/05/01 10:51:01;;;;;;;69.18;52.25;;;13.90;99.90;;;;;;5028192;28;20204;-73
2021/05/01 10:53:28;;;;;;;62.97;51.60;;;14.00;99.90;;;;;;5026636;28;20214;-72
2021/05/01 10:55:55;;;;;;;61.92;48.78;;;13.80;99.90;;;;;;5026682;28;20232;-73
2021/05/01 10:58:36;;;;;;;61.50;48.60;;;13.50;99.90;;;;;;5030180;28;20207;-72
2021/05/01 11:01:04;;;;;;;58.50;48.35;;;13.30;99.90;;;;;;5030789;28;20270;-72
2021/05/01 11:03:31;;;;;;;53.60;45.47;;;12.90;99.90;;;;;;5076136;22;20232;-67
2021/05/01 11:06:00;;;;;;;57.22;43.63;;;12.70;99.90;;;;;;5042114;28;20210;-68
2021/05/01 11:08:39;;;;;;;56.78;45.45;;;12.60;99.90;;;;;;5034305;28;20215;-67
2021/05/01 11:11:12;;;;;;;47.83;40.13;;;12.70;99.90;;;;;;5034918;28;20612;-68
2021/05/01 11:13:41;;;;;;;53.45;42.95;;;12.90;99.90;;;;;;5032658;28;20214;-67
2021/05/01 11:16:09;;;;;;;57.38;42.08;;;13.00;99.90;;;;;;5026756;28;20661;-68
2021/05/01 11:18:39;;;;;;;48.75;40.42;;;13.20;99.90;;;;;;5020782;28;20297;-68
2021/05/01 11:21:08;;;;;;;52.33;42.63;;;13.30;99.90;;;;;;5036321;28;20229;-68
2021/05/01 11:23:36;;;;;;;49.38;42.10;;;13.30;99.90;;;;;;5036096;28;20241;-68
2021/05/01 11:26:06;;;;;;;45.33;38.15;;;13.20;99.90;;;;;;5030265;28;20208;-68
2021/05/01 11:28:33;;;;;;;46.75;39.38;;;13.20;99.90;;;;;;5027423;28;20210;-68
2021/05/01 11:31:00;;;;;;;51.13;39.13;;;13.40;99.90;;;;;;5031680;28;20208;-70
2021/05/01 11:33:27;;;;;;;48.40;38.92;;;13.60;99.90;;;;;;5031142;28;20227;-68
2021/05/01 11:35:55;;;;;;;46.20;39.72;;;13.90;99.90;;;;;;5031553;28;20205;-68
2021/05/01 11:38:27;;;;;;;49.50;40.28;;;14.20;99.90;;;;;;5024571;28;20207;-69
2021/05/01 11:40:56;;;;;;;45.78;40.10;;;14.60;99.90;;;;;;5027849;28;20200;-68
2021/05/01 11:43:29;;;;;;;47.85;38.88;;;14.90;99.90;;;;;;5037159;28;20232;-68
2021/05/01 11:46:22;;;;;;;48.25;40.60;;;14.90;99.90;;;;;;5038535;28;20196;-68
2021/05/01 11:48:56;;;;;;;46.60;40.72;;;14.90;99.90;;;;;;5037385;28;20200;-72
2021/05/01 11:51:31;;;;;;;47.00;39.28;;;15.50;99.90;;;;;;5038843;28;20200;-67
2021/05/01 11:54:09;;;;;;;43.17;37.38;;;16.10;99.90;;;;;;5039163;28;20257;-71
2021/05/01 11:56:51;;;;;;;46.38;39.42;;;16.20;98.20;;;;;;5035857;28;20208;-68
2021/05/01 11:59:18;;;;;;;46.58;40.63;;;15.90;98.00;;;;;;5036909;28;20204;-68
2021/05/01 12:02:00;;;;;;;38.50;34.38;;;16.00;98.50;;;;;;5037914;28;20227;-65
2021/05/01 12:04:49;;;;;;;43.92;38.17;;;16.20;97.70;;;;;;5025218;28;21514;-67
2021/05/01 12:07:24;;;;;;;41.53;36.08;;;16.20;97.70;;;;;;5029810;28;20209;-67
2021/05/01 12:09:53;;;;;;;41.40;36.08;;;16.10;97.40;;;;;;5029413;28;20211;-66
2021/05/01 12:12:22;;;;;;;43.03;36.88;;;16.20;98.00;;;;;;5038996;28;20228;-65
2021/05/01 12:14:49;;;;;;;48.20;36.45;;;16.10;96.00;;;;;;5042273;28;20684;-65
2021/05/01 12:17:16;;;;;;;38.47;34.38;;;15.60;97.10;;;;;;5039535;28;20211;-65
2021/05/01 12:19:45;;;;;;;36.70;32.75;;;15.50;97.50;;;;;;5041909;28;20243;-65
2021/05/01 12:22:26;;;;;;;40.10;35.47;;;15.40;97.70;;;;;;5038693;28;20223;-65
2021/05/01 12:24:54;;;;;;;39.10;34.90;;;15.20;99.70;;;;;;5033641;28;20204;-67
2021/05/01 12:27:48;;;;;;;39.15;33.50;;;15.10;99.70;;;;;;5029916;28;20200;-64
2021/05/01 12:30:50;;;;;;;34.15;30.35;;;14.70;99.10;;;;;;5029028;28;20630;-66
2021/05/01 12:33:50;;;;;;;31.52;27.67;;;14.30;99.90;;;;;;5028281;28;20251;-65
2021/05/01 12:36:28;;;;;;;30.77;27.48;;;14.10;99.90;;;;;;5027749;28;20207;-66
2021/05/01 12:38:57;;;;;;;30.85;27.65;;;14.50;99.90;;;;;;5032741;28;20209;-70
2021/05/01 12:41:32;;;;;;;28.13;25.23;;;15.00;99.90;;;;;;5029523;28;20209;-69
2021/05/01 12:43:59;;;;;;;29.33;26.42;;;15.40;98.40;;;;;;5030947;28;20250;-67
2021/05/01 12:50:23;;;;;;;32.72;29.20;;;15.70;97.30;;;;;;5041507;28;20213;-80
2021/05/01 12:53:14;;;;;;;33.25;29.65;;;15.70;96.40;;;;;;5052313;28;20227;-80
2021/05/01 12:56:15;;;;;;;32.85;29.55;;;15.70;96.40;;;;;;5055597;28;20197;-80
2021/05/01 12:58:42;;;;;;;28.63;25.75;;;15.30;95.10;;;;;;5049074;28;20200;-82
2021/05/01 13:01:27;;;;;;;29.42;26.42;;;15.30;97.00;;;;;;5055539;28;20256;-81
2021/05/01 13:04:13;;;;;;;26.50;23.80;;;15.30;94.50;;;;;;5054855;28;20228;-79
2021/05/01 13:06:42;;;;;;;30.52;27.27;;;15.10;93.30;;;;;;5052692;28;20263;-79
2021/05/01 13:09:11;;;;;;;28.80;25.70;;;15.30;93.00;;;;;;5055896;28;20196;-80
2021/05/01 13:11:38;;;;;;;26.58;23.75;;;15.40;92.90;;;;;;5040019;28;20227;-82
2021/05/01 13:14:19;;;;;;;30.15;27.02;;;15.30;92.40;;;;;;5054021;28;20227;-81
2021/05/01 13:17:06;;;;;;;29.52;25.83;;;15.40;92.10;;;;;;5045123;28;20177;-80
2021/05/01 13:19:34;;;;;;;28.92;25.92;;;15.70;92.90;;;;;;5056820;28;20292;-81
2021/05/01 13:22:04;;;;;;;28.60;25.27;;;15.60;92.20;;;;;;5055830;28;20290;-81
2021/05/01 13:24:32;;;;;;;29.20;26.13;;;15.30;92.60;;;;;;5057638;28;20184;-81
2021/05/01 13:27:00;;;;;;;26.85;24.05;;;15.20;93.50;;;;;;5050519;28;20229;-82
2021/05/01 13:29:29;;;;;;;26.58;23.98;;;15.40;93.80;;;;;;5053025;28;20217;-83
2021/05/01 13:31:56;;;;;;;29.70;25.90;;;15.40;92.60;;;;;;5052620;28;20196;-83